createdAt,value
2024-05-09T00:01:39.247Z,9.13
2024-05-09T00:03:41.587Z,10.00
2024-05-09T00:05:46.702Z,9.53
2024-05-09T00:07:48.618Z,9.87
2024-05-09T00:09:53.074Z,9.87
2024-05-09T00:11:54.968Z,11.60
2024-05-09T00:13:57.072Z,9.90
2024-05-09T00:15:59.820Z,10.23
2024-05-09T00:18:02.085Z,9.63
2024-05-09T00:20:11.067Z,9.10
2024-05-09T00:22:16.399Z,9.90
2024-05-09T00:24:18.387Z,9.70
2024-05-09T00:26:24.010Z,9.60
2024-05-09T00:28:25.769Z,10.13
2024-05-09T00:30:33.748Z,10.43
2024-05-09T00:32:38.202Z,8.30
2024-05-09T00:34:40.275Z,9.90
2024-05-09T00:36:42.153Z,9.07
2024-05-09T00:38:45.871Z,8.80
2024-05-09T00:40:47.881Z,8.87
2024-05-09T00:42:52.403Z,9.27
2024-05-09T00:44:54.166Z,9.00
2024-05-09T00:46:56.281Z,8.53
2024-05-09T00:48:58.242Z,9.10
2024-05-09T00:51:00.845Z,8.40
2024-05-09T00:53:03.044Z,8.63
2024-05-09T00:55:06.574Z,8.80
2024-05-09T00:57:08.511Z,8.53
2024-05-09T00:59:13.109Z,9.27
2024-05-09T01:01:17.967Z,8.70
2024-05-09T01:03:20.381Z,8.27
2024-05-09T01:05:22.538Z,9.87
2024-05-09T01:07:24.812Z,10.60
2024-05-09T01:09:26.795Z,10.40
2024-05-09T01:11:33.776Z,14.00
2024-05-09T01:13:35.743Z,9.93
2024-05-09T01:15:40.196Z,9.80
2024-05-09T01:17:42.580Z,10.90
2024-05-09T01:19:44.642Z,10.67
2024-05-09T01:21:46.556Z,10.67
2024-05-09T01:23:51.051Z,9.70
2024-05-09T01:25:52.859Z,13.03
2024-05-09T01:27:54.543Z,10.20
2024-05-09T01:29:56.421Z,9.80
2024-05-09T01:31:58.301Z,10.80
2024-05-09T01:34:00.435Z,11.10
2024-05-09T01:36:02.492Z,11.80
2024-05-09T01:38:04.846Z,11.57
2024-05-09T01:40:14.907Z,11.70
2024-05-09T01:42:20.076Z,10.80
2024-05-09T01:44:21.884Z,9.90
2024-05-09T01:46:23.820Z,11.17
2024-05-09T01:48:25.890Z,11.53
2024-05-09T01:50:38.134Z,10.40
2024-05-09T01:52:43.094Z,9.87
2024-05-09T01:54:44.941Z,10.77
2024-05-09T01:56:49.403Z,10.33
2024-05-09T01:58:51.275Z,11.03
2024-05-09T02:00:53.179Z,11.27
2024-05-09T02:02:55.055Z,9.67
2024-05-09T02:04:57.104Z,10.60
2024-05-09T02:06:59.026Z,10.97
2024-05-09T02:09:00.787Z,10.80
2024-05-09T02:11:02.868Z,12.13
2024-05-09T02:13:08.543Z,17.27
2024-05-09T02:15:13.218Z,12.73
2024-05-09T02:17:18.226Z,11.03
2024-05-09T02:19:20.183Z,13.87
2024-05-09T02:21:22.062Z,12.23
2024-05-09T02:23:23.791Z,9.90
2024-05-09T02:25:25.578Z,11.00
2024-05-09T02:27:28.956Z,11.20
2024-05-09T02:29:33.449Z,11.70
2024-05-09T02:31:35.348Z,10.93
2024-05-09T02:33:37.435Z,10.40
2024-05-09T02:35:39.804Z,11.03
2024-05-09T02:37:42.059Z,10.67
2024-05-09T02:39:43.855Z,11.20
2024-05-09T02:41:45.683Z,10.70
2024-05-09T02:43:47.509Z,11.20
2024-05-09T02:45:51.989Z,9.90
2024-05-09T02:47:54.062Z,12.37
2024-05-09T02:49:56.086Z,10.87
2024-05-09T02:51:57.979Z,11.70
2024-05-09T02:54:02.818Z,11.57
2024-05-09T02:56:05.614Z,11.03
2024-05-09T02:58:07.643Z,10.53
2024-05-09T03:00:18.542Z,9.53
2024-05-09T03:02:26.861Z,11.07
2024-05-09T03:04:28.755Z,11.80
2024-05-09T03:06:30.618Z,10.77
2024-05-09T03:08:32.657Z,12.10
2024-05-09T03:10:36.818Z,10.70
2024-05-09T03:12:40.608Z,10.10
2024-05-09T03:14:42.622Z,10.30
2024-05-09T03:16:44.591Z,10.70
2024-05-09T03:18:51.734Z,10.53
2024-05-09T03:20:53.929Z,9.87
2024-05-09T03:22:57.003Z,9.90
2024-05-09T03:24:59.052Z,9.67
2024-05-09T03:27:01.008Z,9.27
2024-05-09T03:29:03.121Z,9.60
2024-05-09T03:31:06.280Z,9.40
2024-05-09T03:33:10.423Z,10.17
2024-05-09T03:35:15.121Z,9.60
2024-05-09T03:37:16.930Z,11.80
2024-05-09T03:39:18.773Z,10.03
2024-05-09T03:41:20.443Z,9.97
2024-05-09T03:43:22.375Z,9.30
2024-05-09T03:45:25.600Z,10.77
2024-05-09T03:47:27.562Z,9.30
2024-05-09T03:49:29.552Z,10.50
2024-05-09T03:51:34.120Z,9.87
2024-05-09T03:53:36.039Z,8.97
2024-05-09T03:55:38.001Z,10.00
2024-05-09T03:57:39.779Z,9.70
2024-05-09T03:59:41.631Z,8.23
2024-05-09T04:01:43.558Z,10.40
2024-05-09T04:03:45.636Z,9.30
2024-05-09T04:05:47.453Z,9.63
2024-05-09T04:07:52.134Z,8.97
2024-05-09T04:09:53.915Z,9.70
2024-05-09T04:11:55.934Z,9.20
2024-05-09T04:13:57.918Z,9.33
2024-05-09T04:15:59.731Z,9.30
2024-05-09T04:18:02.195Z,10.60
2024-05-09T04:20:08.333Z,8.80
2024-05-09T04:22:10.428Z,9.83
2024-05-09T04:24:14.839Z,9.13
2024-05-09T04:26:17.480Z,9.23
2024-05-09T04:28:19.471Z,9.07
2024-05-09T04:30:30.230Z,10.07
2024-05-09T04:32:38.358Z,11.83
2024-05-09T04:34:40.184Z,9.10
2024-05-09T04:36:44.339Z,9.83
2024-05-09T04:38:46.717Z,11.10
2024-05-09T04:40:51.198Z,9.43
2024-05-09T04:42:53.035Z,9.53
2024-05-09T04:44:58.335Z,10.80
2024-05-09T04:47:00.683Z,11.17
2024-05-09T04:49:02.672Z,10.23
2024-05-09T04:51:07.245Z,10.63
2024-05-09T04:53:10.647Z,11.20
2024-05-09T04:55:13.595Z,12.60
2024-05-09T04:57:18.185Z,12.43
2024-05-09T04:59:20.068Z,11.53
2024-05-09T05:01:22.085Z,12.50
2024-05-09T05:03:24.016Z,14.13
2024-05-09T05:05:26.075Z,14.27
2024-05-09T05:07:27.939Z,12.97
2024-05-09T05:09:30.137Z,13.80
2024-05-09T05:11:32.258Z,14.33
2024-05-09T05:13:39.447Z,13.50
2024-05-09T05:15:43.397Z,13.73
2024-05-09T05:17:45.393Z,13.90
2024-05-09T05:19:47.527Z,15.27
2024-05-09T05:21:49.526Z,13.63
2024-05-09T05:23:51.503Z,13.93
2024-05-09T05:25:54.186Z,14.00
2024-05-09T05:27:56.313Z,13.70
2024-05-09T05:30:00.756Z,15.43
2024-05-09T05:32:02.678Z,14.93
2024-05-09T05:34:04.776Z,14.00
2024-05-09T05:36:07.588Z,11.87
2024-05-09T05:38:10.688Z,15.80
2024-05-09T05:40:20.671Z,13.13
2024-05-09T05:42:26.795Z,15.23
2024-05-09T05:44:28.713Z,13.90
2024-05-09T05:46:33.120Z,14.97
2024-05-09T05:48:35.358Z,13.13
2024-05-09T05:50:38.474Z,9.13
2024-05-09T05:52:40.707Z,12.57
2024-05-09T05:54:42.521Z,15.67
2024-05-09T05:56:44.432Z,11.20
2024-05-09T05:58:46.323Z,14.43
2024-05-09T06:00:48.416Z,11.07
2024-05-09T06:02:53.272Z,13.90
2024-05-09T06:04:55.245Z,12.00
2024-05-09T06:06:57.140Z,15.73
2024-05-09T06:08:58.941Z,13.70
2024-05-09T06:11:00.926Z,13.87
2024-05-09T06:13:02.819Z,13.60
2024-05-09T06:15:05.797Z,14.43
2024-05-09T06:17:07.786Z,12.90
2024-05-09T06:19:12.425Z,11.50
2024-05-09T06:21:16.787Z,10.40
2024-05-09T06:23:18.717Z,11.13
2024-05-09T06:25:20.910Z,15.33
2024-05-09T06:27:22.760Z,14.03
2024-05-09T06:29:24.560Z,11.10
2024-05-09T06:31:26.363Z,8.33
2024-05-09T06:33:28.514Z,11.07
2024-05-09T06:35:33.731Z,10.80
2024-05-09T06:37:36.365Z,10.93
2024-05-09T06:39:38.111Z,10.90
2024-05-09T06:41:40.012Z,11.27
2024-05-09T06:43:42.749Z,11.53
2024-05-09T06:45:44.539Z,9.40
2024-05-09T06:47:46.605Z,10.93
2024-05-09T06:49:48.716Z,12.50
2024-05-09T06:51:53.443Z,11.37
2024-05-09T06:53:55.322Z,8.50
2024-05-09T06:55:57.119Z,11.70
2024-05-09T06:57:58.878Z,10.03
2024-05-09T07:00:00.832Z,9.13
2024-05-09T07:02:03.042Z,11.13
2024-05-09T07:04:05.258Z,12.20
2024-05-09T07:06:07.109Z,10.13
2024-05-09T07:08:11.877Z,10.97
2024-05-09T07:10:21.702Z,12.77
2024-05-09T07:12:28.084Z,10.87
2024-05-09T07:14:30.331Z,10.90
2024-05-09T07:16:32.146Z,9.67
2024-05-09T07:18:34.040Z,11.40
2024-05-09T07:20:35.993Z,10.90
2024-05-09T07:22:37.781Z,10.10
2024-05-09T07:24:42.292Z,10.57
2024-05-09T07:26:44.219Z,10.07
2024-05-09T07:28:46.025Z,9.13
2024-05-09T07:30:48.059Z,10.43
2024-05-09T07:32:50.252Z,10.63
2024-05-09T07:34:52.647Z,10.30
2024-05-09T07:36:54.532Z,11.27
2024-05-09T07:38:56.266Z,7.70
2024-05-09T07:41:00.897Z,9.10
2024-05-09T07:43:03.050Z,11.03
2024-05-09T07:45:21.561Z,18.73
2024-05-09T07:53:14.372Z,8.10
2024-05-09T07:54:01.910Z,8.10
2024-05-09T07:56:08.642Z,11.83
2024-05-09T07:58:11.070Z,13.53
2024-05-09T08:00:17.280Z,7.53
2024-05-09T08:02:22.077Z,6.47
2024-05-09T08:04:26.582Z,8.17
2024-05-09T08:06:28.746Z,7.90
2024-05-09T08:08:30.517Z,7.37
2024-05-09T08:10:32.434Z,6.60
2024-05-09T08:12:36.949Z,6.80
2024-05-09T08:14:39.071Z,7.17
2024-05-09T08:16:40.931Z,7.40
2024-05-09T08:18:42.837Z,6.10
2024-05-09T08:20:48.602Z,8.20
2024-05-09T08:22:50.443Z,6.40
2024-05-09T08:24:52.212Z,5.17
2024-05-09T08:26:54.233Z,6.53
2024-05-09T08:28:58.709Z,6.90
2024-05-09T08:31:03.178Z,9.73
2024-05-09T08:33:07.885Z,5.10
2024-05-09T08:35:10.102Z,6.27
2024-05-09T08:37:19.418Z,5.50
2024-05-09T08:39:23.916Z,5.60
2024-05-09T08:41:25.918Z,5.90
2024-05-09T08:43:29.564Z,5.27
2024-05-09T08:45:35.577Z,5.23
2024-05-09T08:47:37.584Z,8.03
2024-05-09T08:49:41.643Z,8.63
2024-05-09T08:51:44.252Z,5.20
2024-05-09T08:53:46.462Z,5.67
2024-05-09T08:55:51.063Z,4.60
2024-05-09T08:57:53.652Z,5.10
2024-05-09T08:59:59.347Z,5.60
2024-05-09T09:02:06.055Z,5.60
2024-05-09T09:04:10.187Z,5.03
2024-05-09T09:06:12.794Z,8.80
2024-05-09T09:08:15.830Z,4.90
2024-05-09T09:10:25.416Z,4.87
2024-05-09T09:12:33.560Z,10.00
2024-05-09T09:14:35.376Z,6.83
2024-05-09T09:16:37.737Z,5.23
2024-05-09T09:18:44.330Z,6.17
2024-05-09T09:20:46.448Z,5.67
2024-05-09T09:22:48.573Z,5.37
2024-05-09T09:24:50.591Z,4.77
2024-05-09T09:26:52.541Z,5.27
2024-05-09T09:29:00.051Z,5.50
2024-05-09T09:31:02.583Z,6.10
2024-05-09T09:33:05.218Z,4.33
2024-05-09T09:35:10.138Z,5.23
2024-05-09T09:37:11.959Z,5.90
2024-05-09T09:39:18.469Z,6.60
2024-05-09T09:41:26.424Z,6.97
2024-05-09T09:43:28.552Z,5.80
2024-05-09T09:45:32.358Z,6.50
2024-05-09T09:47:37.056Z,5.60
2024-05-09T09:49:39.724Z,5.10
2024-05-09T09:51:45.296Z,5.80
2024-05-09T09:53:49.062Z,5.40
2024-05-09T09:55:52.110Z,8.10
2024-05-09T09:57:56.184Z,6.13
2024-05-09T10:00:00.365Z,6.60
2024-05-09T10:02:02.369Z,8.70
2024-05-09T10:04:05.395Z,8.17
2024-05-09T10:06:08.546Z,6.20
2024-05-09T10:08:13.837Z,5.03
2024-05-09T10:10:29.881Z,4.93
2024-05-09T10:12:34.841Z,4.27
2024-05-09T10:14:41.015Z,5.30
2024-05-09T10:16:45.818Z,5.70
2024-05-09T10:18:47.975Z,5.33
2024-05-09T10:20:50.355Z,10.53
2024-05-09T10:22:52.154Z,8.63
2024-05-09T10:25:05.354Z,7.93
2024-05-09T10:27:07.628Z,5.43
2024-05-09T10:29:12.817Z,5.67
2024-05-09T10:31:16.467Z,5.33
2024-05-09T10:33:20.256Z,5.67
2024-05-09T10:35:22.741Z,5.40
2024-05-09T10:37:25.745Z,5.33
2024-05-09T10:39:34.722Z,4.60
2024-05-09T10:41:40.165Z,5.10
2024-05-09T10:43:42.367Z,4.43
2024-05-09T10:45:44.559Z,4.73
2024-05-09T10:47:46.553Z,4.37
2024-05-09T10:49:49.569Z,4.20
2024-05-09T10:51:52.589Z,4.50
2024-05-09T10:53:54.611Z,5.00
2024-05-09T10:55:56.786Z,5.63
2024-05-09T10:58:01.507Z,5.43
2024-05-09T11:00:06.196Z,6.20
2024-05-09T11:02:09.368Z,4.40
2024-05-09T11:04:11.550Z,5.40
2024-05-09T11:06:15.030Z,6.00
2024-05-09T11:08:17.464Z,6.10
2024-05-09T11:10:27.379Z,4.70
2024-05-09T11:12:33.913Z,5.30
2024-05-09T11:14:38.689Z,6.33
2024-05-09T11:16:40.689Z,6.40
2024-05-09T11:18:42.642Z,7.00
2024-05-09T11:20:44.678Z,5.23
2024-05-09T11:22:46.629Z,4.80
2024-05-09T11:24:49.886Z,5.87
2024-05-09T11:26:51.815Z,5.23
2024-05-09T11:28:53.718Z,4.97
2024-05-09T11:31:05.140Z,5.47
2024-05-09T11:33:10.656Z,5.00
2024-05-09T11:35:12.824Z,4.60
2024-05-09T11:37:14.814Z,7.87
2024-05-09T11:39:16.864Z,4.80
2024-05-09T11:41:19.568Z,4.10
2024-05-09T11:43:21.617Z,4.70
2024-05-09T11:45:23.451Z,5.10
2024-05-09T11:47:28.278Z,4.10
2024-05-09T11:49:30.777Z,4.30
2024-05-09T11:51:32.733Z,5.93
2024-05-09T11:53:34.675Z,4.43
2024-05-09T11:55:36.679Z,10.30
2024-05-09T11:57:39.155Z,4.27
2024-05-09T11:59:41.398Z,4.27
2024-05-09T12:01:43.556Z,4.17
2024-05-09T12:03:48.392Z,4.53
2024-05-09T12:05:50.748Z,4.13
2024-05-09T12:07:52.704Z,4.30
2024-05-09T12:09:54.614Z,4.47
2024-05-09T12:11:56.516Z,5.73
2024-05-09T12:13:58.342Z,5.00
2024-05-09T12:16:00.964Z,4.93
2024-05-09T12:18:04.212Z,4.43
2024-05-09T12:20:17.507Z,5.40
2024-05-09T12:22:27.341Z,6.30
2024-05-09T12:24:29.406Z,5.90
2024-05-09T12:26:31.461Z,5.73
2024-05-09T12:28:33.436Z,6.80
2024-05-09T12:30:38.905Z,6.17
2024-05-09T12:32:42.496Z,5.90
2024-05-09T12:34:44.383Z,5.20
2024-05-09T12:36:49.068Z,4.30
2024-05-09T12:38:51.201Z,4.40
2024-05-09T12:40:53.222Z,4.77
2024-05-09T12:42:55.302Z,4.40
2024-05-09T12:44:57.226Z,4.00
2024-05-09T12:46:59.101Z,5.10
2024-05-09T12:49:01.510Z,5.80
2024-05-09T12:51:03.956Z,4.67
2024-05-09T12:53:08.549Z,5.03
2024-05-09T12:55:12.047Z,4.60
2024-05-09T12:57:13.953Z,4.73
2024-05-09T12:59:15.901Z,4.43
2024-05-09T13:01:17.891Z,4.93
2024-05-09T13:03:20.364Z,4.93
2024-05-09T13:05:22.559Z,4.40
2024-05-09T13:07:25.388Z,5.90
2024-05-09T13:09:29.994Z,4.43
2024-05-09T13:11:32.110Z,4.20
2024-05-09T13:13:34.288Z,4.43
2024-05-09T13:15:36.409Z,3.90
2024-05-09T13:17:38.542Z,6.67
2024-05-09T13:19:40.624Z,3.63
2024-05-09T13:21:42.561Z,4.87
2024-05-09T13:23:44.850Z,3.83
2024-05-09T13:25:49.414Z,4.40
2024-05-09T13:27:51.472Z,4.60
2024-05-09T13:29:53.345Z,4.50
2024-05-09T13:31:55.254Z,4.07
2024-05-09T13:33:57.154Z,6.00
2024-05-09T13:35:59.306Z,4.10
2024-05-09T13:38:01.635Z,5.97
2024-05-09T13:40:06.763Z,3.83
2024-05-09T13:42:11.805Z,4.10
2024-05-09T13:44:13.658Z,3.63
2024-05-09T13:46:15.504Z,4.10
2024-05-09T13:48:17.895Z,6.53
2024-05-09T13:50:28.129Z,3.67
2024-05-09T13:52:35.697Z,4.20
2024-05-09T13:54:37.732Z,3.27
2024-05-09T13:56:41.345Z,4.30
2024-05-09T13:58:46.153Z,3.50
2024-05-09T14:00:49.355Z,5.20
2024-05-09T14:02:51.762Z,6.07
2024-05-09T14:04:54.090Z,4.63
2024-05-09T14:06:56.122Z,4.47
2024-05-09T14:08:58.019Z,4.53
2024-05-09T14:11:00.107Z,4.20
2024-05-09T14:13:02.232Z,5.43
2024-05-09T14:15:07.554Z,5.30
2024-05-09T14:17:09.672Z,6.53
2024-05-09T14:19:11.927Z,4.10
2024-05-09T14:21:13.809Z,3.97
2024-05-09T14:23:17.768Z,3.70
2024-05-09T14:25:19.655Z,4.37
2024-05-09T14:27:21.604Z,4.53
2024-05-09T14:29:23.677Z,4.23
2024-05-09T14:31:28.166Z,4.83
2024-05-09T14:33:30.309Z,4.00
2024-05-09T14:35:32.320Z,4.50
2024-05-09T14:37:36.333Z,4.20
2024-05-09T14:39:39.046Z,4.53
2024-05-09T14:41:41.079Z,6.03
2024-05-09T14:43:43.333Z,6.00
2024-05-09T14:45:46.016Z,6.90
2024-05-09T14:47:50.891Z,5.27
2024-05-09T14:49:52.880Z,8.63
2024-05-09T14:51:55.028Z,5.73
2024-05-09T14:53:56.790Z,6.07
2024-05-09T14:55:58.656Z,5.00
2024-05-09T14:58:00.587Z,4.47
2024-05-09T15:00:03.765Z,5.60
2024-05-09T15:02:07.158Z,5.17
2024-05-09T15:04:12.036Z,5.70
2024-05-09T15:06:14.601Z,5.27
2024-05-09T15:08:17.803Z,5.93
2024-05-09T15:10:27.023Z,5.00
2024-05-09T15:12:35.853Z,5.63
2024-05-09T15:14:37.719Z,4.00
2024-05-09T15:16:39.501Z,7.03
2024-05-09T15:18:43.760Z,4.87
2024-05-09T15:20:48.951Z,5.30
2024-05-09T15:22:50.995Z,5.10
2024-05-09T15:24:53.051Z,3.57
2024-05-09T15:26:55.082Z,5.80
2024-05-09T15:28:57.007Z,4.80
2024-05-09T15:30:59.038Z,4.33
2024-05-09T15:33:01.540Z,6.70
2024-05-09T15:35:04.448Z,6.20
2024-05-09T15:37:09.165Z,4.50
2024-05-09T15:39:11.322Z,4.80
2024-05-09T15:41:13.715Z,6.30
2024-05-09T15:43:15.783Z,5.47
2024-05-09T15:45:17.716Z,6.67
2024-05-09T15:47:20.039Z,3.97
2024-05-09T15:49:22.065Z,5.40
2024-05-09T15:51:24.017Z,3.53
2024-05-09T15:53:28.548Z,4.93
2024-05-09T15:55:30.415Z,4.50
2024-05-09T15:57:32.676Z,5.07
2024-05-09T15:59:35.168Z,4.47
2024-05-09T16:01:37.141Z,5.43
2024-05-09T16:03:39.153Z,8.33
2024-05-09T16:05:41.489Z,4.53
2024-05-09T16:07:43.839Z,3.33
2024-05-09T16:09:48.346Z,3.13
2024-05-09T16:11:50.331Z,3.70
2024-05-09T16:13:52.231Z,5.90
2024-05-09T16:15:54.177Z,4.53
2024-05-09T16:17:59.384Z,3.83
2024-05-09T16:20:01.384Z,3.60
2024-05-09T16:22:03.480Z,3.70
2024-05-09T16:24:05.899Z,3.57
2024-05-09T16:26:11.143Z,3.97
2024-05-09T16:28:13.612Z,4.70
2024-05-09T16:30:24.665Z,3.60
2024-05-09T16:32:33.450Z,5.13
2024-05-09T16:34:35.805Z,4.83
2024-05-09T16:36:37.713Z,6.03
2024-05-09T16:38:39.684Z,5.77
2024-05-09T16:40:41.842Z,6.57
2024-05-09T16:42:46.345Z,6.40
2024-05-09T16:44:48.504Z,13.83
2024-05-09T16:46:50.376Z,6.03
2024-05-09T16:48:52.400Z,9.03
2024-05-09T16:50:54.407Z,9.60
2024-05-09T16:52:56.634Z,7.70
2024-05-09T16:54:58.640Z,13.63
2024-05-09T16:57:00.625Z,10.47
2024-05-09T16:59:05.257Z,7.07
2024-05-09T17:01:07.314Z,5.07
2024-05-09T17:03:10.275Z,4.53
2024-05-09T17:05:13.111Z,4.60
2024-05-09T17:07:15.224Z,5.73
2024-05-09T17:09:19.799Z,5.60
2024-05-09T17:11:22.346Z,4.57
2024-05-09T17:13:24.240Z,5.23
2024-05-09T17:15:29.020Z,6.60
2024-05-09T17:17:30.992Z,4.60
2024-05-09T17:19:33.096Z,11.33
2024-05-09T17:21:35.067Z,8.70
2024-05-09T17:23:37.227Z,7.90
2024-05-09T17:25:39.320Z,6.93
2024-05-09T17:27:41.175Z,5.50
2024-05-09T17:29:43.193Z,7.37
2024-05-09T17:31:47.642Z,5.03
2024-05-09T17:33:49.689Z,6.93
2024-05-09T17:35:51.811Z,5.97
2024-05-09T17:37:53.848Z,6.73
2024-05-09T17:39:55.684Z,4.73
2024-05-09T17:41:57.631Z,5.20
2024-05-09T17:43:59.980Z,4.70
2024-05-09T17:46:02.078Z,4.80
2024-05-09T17:48:07.892Z,5.40
2024-05-09T17:50:14.865Z,5.70
2024-05-09T17:52:22.823Z,4.40
2024-05-09T17:54:24.774Z,5.13
2024-05-09T17:56:26.982Z,5.10
2024-05-09T17:58:28.854Z,6.20
2024-05-09T18:00:37.899Z,4.57
2024-05-09T18:02:43.034Z,3.40
2024-05-09T18:04:47.916Z,5.03
2024-05-09T18:06:49.904Z,4.30
2024-05-09T18:08:51.760Z,4.80
2024-05-09T18:10:55.345Z,7.80
2024-05-09T18:12:58.221Z,5.13
2024-05-09T18:15:00.386Z,5.20
2024-05-09T18:17:02.422Z,4.30
2024-05-09T18:19:04.588Z,4.93
2024-05-09T18:21:09.547Z,6.43
2024-05-09T18:23:12.226Z,9.00
2024-05-09T18:25:14.393Z,6.20
2024-05-09T18:27:16.512Z,5.90
2024-05-09T18:29:21.741Z,4.07
2024-05-09T18:31:24.437Z,5.20
2024-05-09T18:33:26.858Z,4.63
2024-05-09T18:35:28.906Z,4.87
2024-05-09T18:37:34.020Z,3.93
2024-05-09T18:39:36.143Z,5.43
2024-05-09T18:41:38.637Z,4.70
2024-05-09T18:43:45.099Z,5.10
2024-05-09T18:45:50.513Z,5.10
2024-05-09T18:47:52.712Z,6.33
2024-05-09T18:49:55.131Z,4.67
2024-05-09T18:51:59.873Z,7.20
2024-05-09T18:54:04.694Z,5.50
2024-05-09T18:56:07.863Z,5.50
2024-05-09T18:58:10.041Z,4.70
2024-05-09T19:00:19.315Z,6.10
2024-05-09T19:02:32.060Z,7.57
2024-05-09T19:04:34.612Z,7.60
2024-05-09T19:06:36.618Z,6.90
2024-05-09T19:08:39.135Z,6.53
2024-05-09T19:10:44.428Z,5.67
2024-05-09T19:12:46.636Z,6.83
2024-05-09T19:14:48.772Z,5.70
2024-05-09T19:16:50.763Z,6.70
2024-05-09T19:18:53.361Z,7.77
2024-05-09T19:20:55.692Z,8.57
2024-05-09T19:22:57.747Z,7.37
2024-05-09T19:24:59.813Z,7.40
2024-05-09T19:27:05.170Z,6.00
2024-05-09T19:29:07.278Z,6.97
2024-05-09T19:31:09.589Z,6.13
2024-05-09T19:33:12.964Z,6.73
2024-05-09T19:35:15.845Z,5.43
2024-05-09T19:37:18.289Z,5.80
2024-05-09T19:39:20.247Z,5.17
2024-05-09T19:41:22.107Z,5.10
2024-05-09T19:43:27.079Z,4.70
2024-05-09T19:45:29.252Z,7.57
2024-05-09T19:47:31.478Z,5.60
2024-05-09T19:49:33.583Z,4.77
2024-05-09T19:51:35.774Z,4.63
2024-05-09T19:53:38.021Z,5.23
2024-05-09T19:55:40.421Z,4.70
2024-05-09T19:57:42.478Z,5.90
2024-05-09T19:59:47.348Z,5.50
2024-05-09T20:01:50.170Z,7.07
2024-05-09T20:03:52.770Z,6.60
2024-05-09T20:05:55.107Z,7.20
2024-05-09T20:07:57.064Z,8.20
2024-05-09T20:09:59.444Z,8.50
2024-05-09T20:12:01.774Z,5.13
2024-05-09T20:14:05.484Z,5.30
2024-05-09T20:16:10.732Z,5.33
2024-05-09T20:18:12.993Z,5.97
2024-05-09T20:20:24.572Z,5.73
2024-05-09T20:22:35.249Z,5.10
2024-05-09T20:24:37.559Z,6.00
2024-05-09T20:26:39.750Z,5.47
2024-05-09T20:28:41.602Z,6.50
2024-05-09T20:30:43.418Z,6.27
2024-05-09T20:32:48.144Z,7.10
2024-05-09T20:34:50.141Z,7.70
2024-05-09T20:36:52.358Z,6.60
2024-05-09T20:38:54.245Z,6.97
2024-05-09T20:40:56.684Z,6.37
2024-05-09T20:42:58.646Z,6.80
2024-05-09T20:45:00.892Z,6.03
2024-05-09T20:47:02.719Z,6.60
2024-05-09T20:49:07.867Z,7.00
2024-05-09T20:51:10.216Z,6.40
2024-05-09T20:53:14.126Z,5.60
2024-05-09T20:55:17.116Z,7.40
2024-05-09T20:57:19.164Z,6.10
2024-05-09T20:59:21.213Z,6.27
2024-05-09T21:01:23.532Z,6.63
2024-05-09T21:03:25.913Z,7.17
2024-05-09T21:05:30.820Z,6.23
2024-05-09T21:07:33.032Z,6.87
2024-05-09T21:09:35.162Z,5.93
2024-05-09T21:11:37.154Z,6.47
2024-05-09T21:13:39.364Z,6.13
2024-05-09T21:15:41.837Z,6.90
2024-05-09T21:17:44.007Z,7.67
2024-05-09T21:19:46.100Z,6.23
2024-05-09T21:21:52.452Z,7.07
2024-05-09T21:23:55.439Z,9.33
2024-05-09T21:25:57.387Z,6.53
2024-05-09T21:27:59.484Z,6.10
2024-05-09T21:30:01.463Z,5.97
2024-05-09T21:32:03.439Z,6.03
2024-05-09T21:34:05.608Z,5.60
2024-05-09T21:36:09.249Z,5.97
2024-05-09T21:38:14.203Z,5.37
2024-05-09T21:40:26.659Z,5.20
2024-05-09T21:42:35.123Z,5.17
2024-05-09T21:44:37.390Z,4.87
2024-05-09T21:46:39.436Z,5.37
2024-05-09T21:48:41.559Z,6.37
2024-05-09T21:50:43.454Z,5.90
2024-05-09T21:52:45.237Z,5.97
2024-05-09T21:54:49.945Z,6.03
2024-05-09T21:56:51.789Z,9.50
2024-05-09T21:58:54.204Z,9.07
2024-05-09T22:00:56.178Z,5.70
2024-05-09T22:02:58.115Z,6.60
2024-05-09T22:05:00.094Z,5.30
2024-05-09T22:07:02.210Z,6.57
2024-05-09T22:09:04.409Z,5.90
2024-05-09T22:11:09.317Z,5.70
2024-05-09T22:13:11.488Z,7.93
2024-05-09T22:15:13.521Z,5.40
2024-05-09T22:17:15.469Z,5.07
2024-05-09T22:19:17.373Z,7.87
2024-05-09T22:21:22.523Z,5.40
2024-05-09T22:23:24.599Z,8.00
2024-05-09T22:25:29.575Z,7.13
2024-05-09T22:27:34.667Z,4.83
2024-05-09T22:29:36.651Z,5.00
2024-05-09T22:31:38.399Z,6.53
2024-05-09T22:33:41.985Z,6.23
2024-05-09T22:35:45.192Z,5.73
2024-05-09T22:37:48.575Z,5.83
2024-05-09T22:39:51.843Z,6.73
2024-05-09T22:41:53.738Z,7.13
2024-05-09T22:43:58.247Z,5.90
2024-05-09T22:46:00.223Z,6.03
2024-05-09T22:48:02.322Z,6.60
2024-05-09T22:50:10.790Z,5.67
2024-05-09T22:52:18.074Z,5.20
2024-05-09T22:54:19.897Z,5.50
2024-05-09T22:56:27.370Z,6.33
2024-05-09T22:58:29.424Z,5.80
2024-05-09T23:00:34.224Z,5.80
2024-05-09T23:02:36.808Z,9.20
2024-05-09T23:04:38.759Z,6.87
2024-05-09T23:06:40.825Z,6.23
2024-05-09T23:08:42.691Z,5.47
2024-05-09T23:10:44.699Z,8.70
2024-05-09T23:12:46.578Z,7.47
2024-05-09T23:14:48.357Z,7.00
2024-05-09T23:16:52.871Z,10.27
2024-05-09T23:18:54.784Z,5.60
2024-05-09T23:20:56.672Z,5.97
2024-05-09T23:22:58.837Z,5.67
2024-05-09T23:25:00.869Z,5.90
2024-05-09T23:27:02.871Z,5.97
2024-05-09T23:29:04.610Z,5.57
2024-05-09T23:31:06.506Z,5.27
2024-05-09T23:33:13.054Z,5.50
2024-05-09T23:35:15.661Z,10.87
2024-05-09T23:37:17.541Z,6.63
2024-05-09T23:39:19.479Z,6.83
2024-05-09T23:41:21.360Z,6.97
2024-05-09T23:43:23.322Z,7.47
2024-05-09T23:45:25.171Z,7.97
2024-05-09T23:47:27.060Z,6.93
2024-05-09T23:49:32.116Z,5.13
2024-05-09T23:51:34.123Z,5.53
2024-05-09T23:53:35.981Z,5.93
2024-05-09T23:55:41.070Z,6.60
2024-05-09T23:57:43.034Z,5.63
2024-05-09T23:59:44.963Z,5.83
